createdAt,value
2022-09-01T00:00:47.306Z,7.00
2022-09-01T00:03:22.794Z,6.00
2022-09-01T00:05:57.953Z,6.00
2022-09-01T00:08:32.943Z,7.00
2022-09-01T00:11:07.981Z,7.00
2022-09-01T00:13:42.985Z,6.60
2022-09-01T00:16:19.115Z,8.60
2022-09-01T00:18:53.684Z,6.00
2022-09-01T00:21:28.739Z,8.50
2022-09-01T00:24:02.740Z,7.50
2022-09-01T00:26:37.114Z,6.80
2022-09-01T00:29:11.163Z,9.00
2022-09-01T00:31:45.689Z,6.75
2022-09-01T00:34:20.056Z,6.00
2022-09-01T00:36:54.530Z,6.40
2022-09-01T00:39:28.550Z,9.00
2022-09-01T00:42:03.060Z,8.00
2022-09-01T00:44:39.426Z,7.00
2022-09-01T00:47:15.095Z,7.60
2022-09-01T00:49:49.480Z,6.00
2022-09-01T00:52:25.802Z,7.40
2022-09-01T00:54:59.767Z,6.80
2022-09-01T00:57:34.742Z,4.25
2022-09-01T01:00:11.984Z,7.50
2022-09-01T01:02:47.040Z,6.00
2022-09-01T01:05:22.774Z,6.00
2022-09-01T01:07:57.193Z,5.60
2022-09-01T01:10:33.369Z,6.00
2022-09-01T01:13:09.732Z,5.25
2022-09-01T01:15:44.890Z,7.00
2022-09-01T01:18:23.376Z,6.00
2022-09-01T01:21:17.046Z,8.60
2022-09-01T01:23:52.111Z,6.00
2022-09-01T01:26:26.589Z,5.50
2022-09-01T01:29:03.094Z,7.00
2022-09-01T01:31:38.813Z,7.00
2022-09-01T01:34:14.553Z,4.60
2022-09-01T01:36:49.882Z,5.60
2022-09-01T01:39:26.276Z,5.00
2022-09-01T01:42:00.937Z,5.75
2022-09-01T01:44:35.741Z,5.40
2022-09-01T01:47:10.770Z,6.00
2022-09-01T01:49:45.190Z,5.00
2022-09-01T01:52:21.543Z,5.60
2022-09-01T01:55:05.098Z,4.00
2022-09-01T01:57:40.225Z,5.60
2022-09-01T02:00:28.733Z,4.00
2022-09-01T02:03:06.052Z,4.00
2022-09-01T02:05:40.698Z,5.00
2022-09-01T02:08:16.961Z,5.00
2022-09-01T02:10:51.491Z,4.00
2022-09-01T02:13:31.540Z,3.75
2022-09-01T02:16:06.290Z,5.00
2022-09-01T02:18:42.839Z,6.00
2022-09-01T02:21:20.584Z,4.40
2022-09-01T02:24:02.335Z,5.60
2022-09-01T02:26:39.492Z,5.00
2022-09-01T02:29:18.732Z,5.00
2022-09-01T02:31:53.155Z,5.00
2022-09-01T02:34:29.912Z,5.00
2022-09-01T02:37:04.349Z,7.00
2022-09-01T02:39:39.541Z,5.20
2022-09-01T02:42:15.771Z,7.00
2022-09-01T02:44:50.837Z,5.25
2022-09-01T02:47:27.041Z,4.20
2022-09-01T02:50:04.454Z,5.00
2022-09-01T02:52:41.311Z,6.20
2022-09-01T02:55:18.448Z,5.40
2022-09-01T02:57:58.012Z,5.60
2022-09-01T03:00:34.270Z,4.67
2022-09-01T03:03:09.339Z,5.00
2022-09-01T03:05:43.977Z,6.00
2022-09-01T03:08:18.666Z,7.00
2022-09-01T03:10:54.733Z,6.75
2022-09-01T03:13:30.003Z,7.00
2022-09-01T03:16:05.803Z,7.00
2022-09-01T03:18:41.698Z,10.00
2022-09-01T03:21:16.996Z,5.75
2022-09-01T03:23:51.018Z,7.40
2022-09-01T03:26:26.180Z,6.00
2022-09-01T03:29:01.274Z,8.00
2022-09-01T03:31:36.416Z,7.25
2022-09-01T03:34:12.214Z,7.00
2022-09-01T03:36:51.037Z,9.00
2022-09-01T03:39:26.029Z,8.00
2022-09-01T03:42:01.077Z,8.40
2022-09-01T03:44:41.616Z,6.00
2022-09-01T03:47:16.136Z,9.00
2022-09-01T03:49:51.169Z,5.50
2022-09-01T03:52:26.110Z,9.00
2022-09-01T03:55:01.090Z,6.00
2022-09-01T03:57:36.294Z,9.50
2022-09-01T04:00:23.824Z,9.00
2022-09-01T04:02:59.445Z,7.00
2022-09-01T04:05:34.822Z,9.60
2022-09-01T04:08:10.998Z,10.00
2022-09-01T04:10:54.458Z,8.00
2022-09-01T04:13:31.692Z,9.00
2022-09-01T04:16:11.316Z,9.00
2022-09-01T04:18:52.015Z,8.80
2022-09-01T04:21:27.024Z,8.00
2022-09-01T04:24:06.297Z,8.00
2022-09-01T04:26:41.543Z,8.75
2022-09-01T04:29:16.029Z,8.00
2022-09-01T04:31:55.452Z,7.40
2022-09-01T04:34:38.796Z,9.25
2022-09-01T04:37:13.992Z,7.00
2022-09-01T04:39:56.253Z,11.00
2022-09-01T04:42:34.061Z,7.00
2022-09-01T04:45:11.888Z,7.50
2022-09-01T04:47:46.375Z,6.00
2022-09-01T04:50:25.853Z,6.40
2022-09-01T04:53:02.148Z,7.00
2022-09-01T04:55:37.994Z,9.40
2022-09-01T04:58:14.465Z,9.00
2022-09-01T05:00:52.869Z,15.50
2022-09-01T05:03:27.480Z,8.00
2022-09-01T05:06:04.562Z,9.60
2022-09-01T05:08:39.460Z,10.00
2022-09-01T05:11:13.596Z,9.00
2022-09-01T05:13:50.699Z,9.20
2022-09-01T05:16:39.185Z,10.40
2022-09-01T05:19:23.518Z,10.20
2022-09-01T05:22:07.314Z,12.25
2022-09-01T05:24:42.334Z,9.40
2022-09-01T05:27:20.872Z,11.00
2022-09-01T05:29:55.043Z,14.50
2022-09-01T05:32:29.691Z,10.50
2022-09-01T05:35:04.056Z,16.50
2022-09-01T05:37:40.794Z,10.20
2022-09-01T05:40:16.944Z,12.50
2022-09-01T05:42:53.182Z,12.40
2022-09-01T05:45:27.677Z,11.80
2022-09-01T05:48:02.573Z,15.40
2022-09-01T05:50:36.955Z,14.60
2022-09-01T05:53:18.267Z,14.80
2022-09-01T05:56:00.313Z,13.75
2022-09-01T06:01:29.502Z,13.00
2022-09-01T06:04:06.903Z,16.60
2022-09-01T06:07:01.793Z,14.40
2022-09-01T06:09:36.239Z,15.60
2022-09-01T06:12:18.797Z,16.00
2022-09-01T06:14:55.216Z,13.40
2022-09-01T06:17:31.918Z,15.00
2022-09-01T06:20:11.459Z,16.00
2022-09-01T06:22:48.065Z,13.20
2022-09-01T06:25:22.074Z,13.60
2022-09-01T06:27:56.963Z,15.50
2022-09-01T06:30:31.406Z,19.00
2022-09-01T06:33:06.562Z,14.25
2022-09-01T06:35:41.989Z,16.00
2022-09-01T06:38:18.715Z,16.20
2022-09-01T06:40:54.810Z,15.00
2022-09-01T06:43:31.366Z,16.25
2022-09-01T06:46:05.506Z,15.40
2022-09-01T06:48:49.085Z,12.20
2022-09-01T06:51:23.079Z,16.20
2022-09-01T06:54:01.353Z,19.75
2022-09-01T06:56:37.161Z,16.00
2022-09-01T06:59:19.596Z,13.50
2022-09-01T07:02:01.376Z,14.00
2022-09-01T07:04:40.302Z,13.80
2022-09-01T07:10:24.032Z,11.00
2022-09-01T07:13:06.863Z,17.00
2022-09-01T07:18:37.464Z,14.00
2022-09-01T07:24:10.449Z,15.00
2022-09-01T07:26:50.401Z,12.60
2022-09-01T07:29:27.270Z,12.00
2022-09-01T07:34:56.444Z,14.60
2022-09-01T07:43:28.335Z,11.00
2022-09-01T07:52:05.442Z,14.00
2022-09-01T07:54:39.663Z,12.00
2022-09-01T07:57:13.687Z,10.75
2022-09-01T07:59:54.761Z,10.80
2022-09-01T08:02:28.943Z,11.00
2022-09-01T08:05:04.464Z,10.80
2022-09-01T08:07:51.671Z,11.00
2022-09-01T08:10:49.080Z,11.20
2022-09-01T08:13:23.492Z,13.00
2022-09-01T08:16:08.643Z,12.00
2022-09-01T08:19:16.891Z,14.00
2022-09-01T08:21:50.972Z,10.80
2022-09-01T08:24:25.082Z,11.00
2022-09-01T08:26:59.213Z,13.40
2022-09-01T08:29:33.382Z,14.00
2022-09-01T08:32:08.040Z,17.00
2022-09-01T08:34:44.416Z,14.50
2022-09-01T08:37:20.109Z,17.80
2022-09-01T08:39:54.574Z,15.00
2022-09-01T08:42:32.972Z,16.75
2022-09-01T08:45:15.937Z,16.50
2022-09-01T08:48:22.451Z,13.00
2022-09-01T08:50:44.503Z,15.40
2022-09-01T08:53:26.070Z,13.00
2022-09-01T08:56:00.247Z,17.80
2022-09-01T08:58:34.641Z,13.00
2022-09-01T09:01:08.850Z,14.00
2022-09-01T09:03:43.078Z,14.80
2022-09-01T09:06:18.793Z,13.00
2022-09-01T09:08:54.381Z,13.60
2022-09-01T09:11:30.022Z,17.00
2022-09-01T09:14:04.937Z,11.75
2022-09-01T09:16:39.163Z,11.40
2022-09-01T09:19:13.808Z,15.00
2022-09-01T09:21:47.843Z,14.00
2022-09-01T09:24:22.757Z,18.00
2022-09-01T09:26:57.087Z,15.00
2022-09-01T09:29:31.651Z,17.60
2022-09-01T09:32:05.851Z,22.00
2022-09-01T09:34:40.853Z,21.50
2022-09-01T09:37:15.032Z,21.20
2022-09-01T09:39:48.971Z,21.75
2022-09-01T09:42:26.803Z,26.25
2022-09-01T09:45:05.469Z,19.00
2022-09-01T09:47:43.949Z,15.20
2022-09-01T09:50:21.401Z,21.40
2022-09-01T09:52:56.626Z,19.20
2022-09-01T09:55:30.863Z,20.00
2022-09-01T09:58:08.409Z,20.00
2022-09-01T10:00:45.633Z,24.20
2022-09-01T10:03:20.345Z,23.60
2022-09-01T10:06:26.257Z,23.25
2022-09-01T10:09:01.841Z,23.00
2022-09-01T10:11:36.109Z,20.00
2022-09-01T10:14:23.549Z,21.00
2022-09-01T10:17:13.554Z,30.00
2022-09-01T10:19:53.424Z,29.00
2022-09-01T10:22:32.869Z,25.00
2022-09-01T10:25:16.725Z,25.80
2022-09-01T10:27:55.484Z,29.00
2022-09-01T10:30:32.976Z,28.00
2022-09-01T10:33:20.954Z,33.00
2022-09-01T10:35:55.747Z,26.80
2022-09-01T10:38:29.888Z,29.80
2022-09-01T10:41:14.704Z,32.00
2022-09-01T10:43:50.955Z,32.00
2022-09-01T10:46:38.785Z,30.80
2022-09-01T10:49:15.993Z,26.60
2022-09-01T10:52:19.886Z,33.50
2022-09-01T10:55:00.524Z,31.00
2022-09-01T10:57:34.620Z,31.33
2022-09-01T11:00:34.791Z,30.00
2022-09-01T11:03:29.574Z,31.00
2022-09-01T11:06:11.322Z,32.60
2022-09-01T11:08:50.946Z,29.00
2022-09-01T11:11:26.096Z,32.60
2022-09-01T11:14:00.225Z,32.60
2022-09-01T11:16:51.080Z,30.25
2022-09-01T11:19:25.326Z,31.40
2022-09-01T11:22:02.546Z,30.00
2022-09-01T11:24:37.853Z,30.50
2022-09-01T11:27:11.940Z,30.00
2022-09-01T11:29:47.858Z,30.40
2022-09-01T11:32:22.619Z,32.75
2022-09-01T11:34:58.963Z,30.00
2022-09-01T11:37:35.690Z,31.60
2022-09-01T11:40:11.277Z,32.00
2022-09-01T11:42:46.823Z,29.60
2022-09-01T11:45:22.211Z,31.75
2022-09-01T11:47:57.427Z,32.00
2022-09-01T11:50:34.973Z,30.75
2022-09-01T11:53:09.218Z,30.00
2022-09-01T11:55:51.490Z,31.75
2022-09-01T11:58:27.904Z,29.50
2022-09-01T12:01:12.021Z,29.20
2022-09-01T12:03:47.253Z,26.40
2022-09-01T12:06:22.192Z,28.25
2022-09-01T12:08:56.447Z,26.75
2022-09-01T12:11:32.941Z,29.25
2022-09-01T12:14:11.150Z,31.75
2022-09-01T12:16:49.276Z,29.75
2022-09-01T12:19:26.490Z,30.00
2022-09-01T12:22:00.771Z,26.60
2022-09-01T12:24:35.784Z,25.50
2022-09-01T12:27:09.852Z,25.50
2022-09-01T12:29:43.994Z,27.00
2022-09-01T12:32:18.208Z,28.25
2022-09-01T12:34:52.599Z,23.50
2022-09-01T12:37:27.382Z,24.67
2022-09-01T12:40:01.791Z,28.00
2022-09-01T12:42:38.910Z,26.60
2022-09-01T12:45:16.555Z,20.60
2022-09-01T12:47:51.406Z,21.40
2022-09-01T12:50:35.440Z,18.80
2022-09-01T12:53:09.474Z,26.50
2022-09-01T12:55:50.522Z,24.60
2022-09-01T12:58:26.505Z,22.60
2022-09-01T13:01:00.888Z,23.00
2022-09-01T13:03:35.462Z,25.25
2022-09-01T13:06:09.485Z,23.40
2022-09-01T13:08:44.273Z,29.25
2022-09-01T13:11:22.087Z,21.20
2022-09-01T13:14:02.323Z,22.60
2022-09-01T13:16:38.979Z,25.20
2022-09-01T13:19:18.019Z,25.50
2022-09-01T13:21:56.392Z,25.00
2022-09-01T13:24:32.022Z,29.00
2022-09-01T13:27:22.361Z,27.00
2022-09-01T13:29:56.704Z,24.33
2022-09-01T13:32:30.835Z,21.75
2022-09-01T13:35:05.724Z,18.40
2022-09-01T13:37:40.222Z,21.40
2022-09-01T13:40:17.410Z,22.00
2022-09-01T13:42:53.668Z,19.50
2022-09-01T13:45:45.106Z,17.60
2022-09-01T13:48:22.439Z,19.00
2022-09-01T13:51:16.711Z,21.00
2022-09-01T13:53:53.910Z,23.25
2022-09-01T13:56:28.201Z,21.00
2022-09-01T13:59:04.972Z,20.00
2022-09-01T14:01:42.243Z,22.20
2022-09-01T14:04:16.352Z,19.00
2022-09-01T14:06:52.804Z,21.00
2022-09-01T14:09:27.016Z,23.00
2022-09-01T14:12:01.107Z,23.25
2022-09-01T14:17:31.827Z,20.00
2022-09-01T14:20:05.852Z,22.00
2022-09-01T14:22:44.046Z,23.00
2022-09-01T14:25:18.697Z,17.40
2022-09-01T14:27:54.265Z,18.00
2022-09-01T14:30:31.389Z,17.67
2022-09-01T14:33:05.921Z,20.50
2022-09-01T14:35:42.737Z,15.00
2022-09-01T14:38:18.119Z,19.00
2022-09-01T14:40:54.130Z,18.20
2022-09-01T14:43:28.197Z,15.60
2022-09-01T14:46:02.585Z,18.00
2022-09-01T14:48:38.613Z,18.40
2022-09-01T14:51:12.623Z,19.00
2022-09-01T14:53:47.561Z,16.20
2022-09-01T14:56:23.276Z,22.00
2022-09-01T14:59:02.400Z,15.00
2022-09-01T15:01:37.629Z,17.20
2022-09-01T15:04:12.765Z,19.80
2022-09-01T15:06:46.779Z,19.40
2022-09-01T15:09:23.976Z,23.60
2022-09-01T15:11:58.400Z,18.75
2022-09-01T15:14:32.521Z,20.75
2022-09-01T15:17:07.627Z,19.00
2022-09-01T15:19:41.619Z,22.25
2022-09-01T15:22:17.966Z,21.80
2022-09-01T15:24:51.963Z,27.00
2022-09-01T15:27:26.147Z,23.20
2022-09-01T15:30:01.162Z,22.60
2022-09-01T15:32:35.109Z,22.80
2022-09-01T15:35:10.097Z,24.75
2022-09-01T15:37:44.340Z,24.50
2022-09-01T15:40:19.007Z,22.40
2022-09-01T15:42:54.747Z,30.00
2022-09-01T15:45:30.223Z,30.00
2022-09-01T15:48:04.224Z,28.00
2022-09-01T15:50:38.283Z,28.00
2022-09-01T15:53:14.183Z,33.00
2022-09-01T15:55:49.261Z,33.75
2022-09-01T15:58:27.156Z,31.00
2022-09-01T16:01:08.537Z,30.20
2022-09-01T16:03:43.321Z,31.00
2022-09-01T16:06:17.455Z,31.40
2022-09-01T16:08:52.499Z,31.00
2022-09-01T16:11:26.999Z,34.75
2022-09-01T16:14:02.702Z,37.40
2022-09-01T16:16:40.719Z,34.75
2022-09-01T16:19:16.830Z,31.25
2022-09-01T16:21:51.955Z,33.60
2022-09-01T16:24:26.228Z,37.50
2022-09-01T16:27:01.954Z,32.00
2022-09-01T16:29:36.845Z,33.00
2022-09-01T16:32:11.815Z,38.00
2022-09-01T16:34:48.952Z,37.75
2022-09-01T16:37:23.994Z,36.00
2022-09-01T16:39:57.997Z,38.00
2022-09-01T16:42:35.148Z,38.00
2022-09-01T16:45:09.318Z,38.00
2022-09-01T16:47:43.807Z,41.00
2022-09-01T16:50:20.106Z,40.20
2022-09-01T16:52:54.555Z,40.50
2022-09-01T16:55:30.898Z,42.20
2022-09-01T16:58:04.854Z,42.50
2022-09-01T17:00:39.327Z,41.00
2022-09-01T17:03:17.250Z,42.00
2022-09-01T17:05:52.257Z,41.00
2022-09-01T17:08:26.773Z,42.00
2022-09-01T17:11:02.779Z,43.60
2022-09-01T17:13:40.950Z,44.25
2022-09-01T17:16:16.549Z,41.50
2022-09-01T17:18:52.315Z,42.00
2022-09-01T17:21:26.730Z,43.00
2022-09-01T17:24:03.347Z,43.00
2022-09-01T17:26:38.308Z,42.75
2022-09-01T17:29:12.808Z,39.20
2022-09-01T17:31:47.488Z,38.00
2022-09-01T17:34:24.002Z,41.20
2022-09-01T17:36:59.003Z,41.60
2022-09-01T17:39:34.049Z,40.50
2022-09-01T17:42:11.256Z,39.25
2022-09-01T17:44:46.307Z,41.00
2022-09-01T17:47:21.248Z,41.60
2022-09-01T17:49:57.572Z,44.25
2022-09-01T17:52:32.535Z,46.75
2022-09-01T17:55:07.969Z,43.50
2022-09-01T17:57:42.590Z,44.00
2022-09-01T18:00:18.031Z,38.50
2022-09-01T18:02:52.475Z,38.50
2022-09-01T18:05:28.158Z,32.20
2022-09-01T18:08:02.199Z,31.20
2022-09-01T18:10:37.913Z,33.00
2022-09-01T18:13:12.352Z,36.00
2022-09-01T18:15:51.834Z,31.60
2022-09-01T18:18:27.553Z,29.00
2022-09-01T18:21:02.586Z,30.25
2022-09-01T18:23:37.641Z,25.00
2022-09-01T18:26:12.045Z,32.50
2022-09-01T18:28:46.454Z,26.00
2022-09-01T18:31:20.528Z,26.75
2022-09-01T18:33:55.798Z,31.00
2022-09-01T18:36:30.208Z,29.00
2022-09-01T18:39:04.704Z,25.00
2022-09-01T18:41:39.723Z,29.00
2022-09-01T18:44:14.161Z,29.50
2022-09-01T18:46:50.197Z,22.50
2022-09-01T18:49:24.568Z,20.67
2022-09-01T18:51:59.494Z,22.00
2022-09-01T18:54:35.383Z,19.20
2022-09-01T18:57:09.733Z,19.40
2022-09-01T18:59:45.814Z,18.33
2022-09-01T19:02:19.870Z,17.00
2022-09-01T19:04:54.835Z,18.20
2022-09-01T19:07:30.106Z,17.00
2022-09-01T19:10:06.548Z,15.00
2022-09-01T19:12:40.540Z,19.00
2022-09-01T19:15:15.443Z,15.00
2022-09-01T19:17:52.426Z,13.00
2022-09-01T19:20:27.645Z,15.00
2022-09-01T19:23:02.818Z,18.25
2022-09-01T19:25:37.808Z,19.25
2022-09-01T19:28:12.277Z,23.50
2022-09-01T19:30:49.393Z,16.00
2022-09-01T19:33:23.514Z,16.00
2022-09-01T19:35:57.681Z,16.25
2022-09-01T19:38:32.619Z,18.80
2022-09-01T19:41:07.659Z,17.60
2022-09-01T19:43:44.202Z,15.25
2022-09-01T19:46:18.156Z,16.00
2022-09-01T19:48:52.610Z,12.40
2022-09-01T19:51:27.577Z,16.40
2022-09-01T19:54:02.235Z,15.00
2022-09-01T19:56:36.586Z,13.40
2022-09-01T19:59:14.951Z,14.50
2022-09-01T20:01:49.046Z,18.80
2022-09-01T20:04:25.134Z,13.40
2022-09-01T20:06:59.334Z,15.00
2022-09-01T20:09:34.710Z,14.00
2022-09-01T20:12:09.984Z,13.40
2022-09-01T20:14:44.410Z,12.00
2022-09-01T20:17:19.406Z,15.00
2022-09-01T20:19:56.111Z,17.25
2022-09-01T20:22:33.227Z,15.20
2022-09-01T20:25:08.472Z,13.00
2022-09-01T20:27:42.543Z,13.50
2022-09-01T20:30:18.897Z,23.00
2022-09-01T20:32:54.835Z,18.00
2022-09-01T20:35:28.894Z,16.75
2022-09-01T20:38:03.295Z,14.60
2022-09-01T20:40:38.554Z,17.50
2022-09-01T20:43:14.908Z,18.40
2022-09-01T20:45:51.149Z,19.00
2022-09-01T20:48:25.713Z,15.00
2022-09-01T20:50:59.692Z,20.60
2022-09-01T20:53:34.631Z,19.00
2022-09-01T20:56:09.654Z,16.20
2022-09-01T20:58:45.009Z,19.50
2022-09-01T21:01:20.901Z,17.00
2022-09-01T21:03:55.399Z,17.00
2022-09-01T21:06:30.399Z,15.00
2022-09-01T21:09:04.550Z,15.00
2022-09-01T21:11:38.926Z,15.00
2022-09-01T21:14:14.386Z,14.40
2022-09-01T21:16:48.836Z,15.00
2022-09-01T21:19:22.823Z,13.40
2022-09-01T21:21:57.241Z,13.00
2022-09-01T21:24:32.094Z,19.00
2022-09-01T21:27:08.143Z,14.50
2022-09-01T21:29:44.481Z,18.00
2022-09-01T21:32:19.496Z,15.00
2022-09-01T21:34:55.561Z,11.25
2022-09-01T21:37:30.516Z,13.00
2022-09-01T21:40:04.567Z,12.00
2022-09-01T21:42:39.579Z,13.00
2022-09-01T21:45:14.124Z,12.75
2022-09-01T21:47:48.244Z,16.75
2022-09-01T21:50:23.296Z,14.40
2022-09-01T21:52:57.626Z,12.80
2022-09-01T21:55:32.897Z,15.75
2022-09-01T21:58:07.839Z,11.00
2022-09-01T22:00:44.072Z,18.60
2022-09-01T22:03:19.268Z,17.00
2022-09-01T22:05:53.801Z,14.00
2022-09-01T22:08:27.827Z,15.00
2022-09-01T22:11:03.000Z,11.60
2022-09-01T22:13:38.147Z,15.00
2022-09-01T22:16:13.295Z,18.25
2022-09-01T22:18:51.304Z,15.00
2022-09-01T22:21:26.109Z,16.40
2022-09-01T22:24:01.229Z,17.00
2022-09-01T22:26:36.585Z,14.60
2022-09-01T22:29:12.263Z,15.80
2022-09-01T22:31:46.763Z,14.00
2022-09-01T22:34:20.968Z,13.00
2022-09-01T22:36:54.980Z,16.20
2022-09-01T22:39:28.923Z,13.75
2022-09-01T22:42:05.229Z,17.75
2022-09-01T22:44:39.772Z,20.00
2022-09-01T22:47:14.236Z,16.80
2022-09-01T22:49:48.191Z,17.80
2022-09-01T22:52:22.531Z,23.25
2022-09-01T22:54:56.543Z,16.00
2022-09-01T22:57:31.432Z,22.50
2022-09-01T23:00:07.123Z,22.75
2022-09-01T23:02:42.156Z,19.75
2022-09-01T23:05:19.844Z,26.60
2022-09-01T23:07:54.789Z,23.00
2022-09-01T23:10:29.523Z,20.00
2022-09-01T23:13:04.408Z,21.80
2022-09-01T23:15:42.328Z,22.00
2022-09-01T23:18:17.354Z,23.00
2022-09-01T23:20:52.302Z,25.00
2022-09-01T23:23:27.283Z,29.00
2022-09-01T23:26:01.289Z,25.20
2022-09-01T23:28:36.427Z,21.25
2022-09-01T23:31:10.837Z,24.25
2022-09-01T23:33:45.852Z,27.00
2022-09-01T23:36:21.281Z,27.80
2022-09-01T23:38:55.213Z,28.75
2022-09-01T23:41:31.734Z,22.40
2022-09-01T23:44:06.370Z,22.75
2022-09-01T23:46:41.284Z,22.25
2022-09-01T23:49:15.303Z,21.80
2022-09-01T23:51:49.744Z,23.25
2022-09-01T23:54:24.144Z,26.00
2022-09-01T23:56:59.056Z,30.25
2022-09-01T23:59:35.951Z,29.00
